Aeroporto :
LOGIN :

Iscrizione | Disclaimer

   EN    FR    IT 

 










Sommario :    VFR   VFR Marginale   IFR   IFR Intensivo   IFR Molto Intensivo
Visibilità : 
Base nubi : 
>= 8 km
>= 3000ft
5 / 8 km
1000 / 3000 ft
1500m / 5 km
500 / 1000 ft
800 / 1500m
200 / 500 ft
< 800m
< 200 ft
Simboli :   Temporali  Nebbia  Neve Forte  Precipitazioni Forti  Vento > 20 kt
SIGMETs :   Varie  Temporali  Ghiacco  Turbolenza  Onda orograficha  Ceneri Vulcaniche






- Altitudine del aeroporto : 183 ft
- Codice IATA : HAJ


EDDV - Hanover/Langenhagen Int.

ULTIMO METAR :
  • 291350Z 19017G28KT 160V220 CAVOK 14/06 Q0988 TEMPO 20025G35KT

METARs OBSOLETI :
  • 291320Z 19015KT 160V220 CAVOK 14/06 Q0989 TEMPO 16015G25KT
  • 291250Z 17012KT 130V210 CAVOK 13/06 Q0990 TEMPO 16015G25KT
  • 291220Z 14012KT 110V180 CAVOK 12/06 Q0990 TEMPO 16015G25KT
  • 291150Z 16013KT 130V190 CAVOK 12/06 Q0991 TEMPO 16015G25KT
  • 291120Z 16009KT 120V190 CAVOK 12/06 Q0992 TEMPO 20015G25KT

TAF TAF EDDV
Valido dal 29 a 12 ore il 01 a 12 ore UTC


291100Z 2912/0112 18013KT 9999 SCT025
TEMPO 2912/2916 18015G25KT
BECMG 2916/2918 27020G45KT RA
BECMG 2918/2920 23012KT NSW
TEMPO 2920/0106 23015G25KT
BECMG 0106/0108 23015G30KT
PROB30
TEMPO 0108/0112 23020G35KT



MetMap, La meteo Aeronautica in un colpo d'occhio ! - Copyright ORBIFLY Dicembre 2007 - Disclaimer

ORBIFLY MET'MAP TEAM :

Programmazione e sviluppo : Alexandra Zaïnal
Concezione : Baudouin d'Aumeries
Aiuto per la programmazione : Marc-Olivier Méhu
Supporto tecnico e logistico : Manuel Goepfert
Aiuto per la traduzione : Arnaldo La Scala

Contatto : metmap@orbifly.com




FONTI E CREDITI :

   NOAA